createdAt,value
2018-08-28T00:01:04.078Z,6.53
2018-08-28T00:03:33.778Z,5.97
2018-08-28T00:06:18.407Z,6.33
2018-08-28T00:08:59.214Z,6.10
2018-08-28T00:11:28.442Z,6.07
2018-08-28T00:14:08.601Z,6.10
2018-08-28T00:16:49.490Z,6.17
2018-08-28T00:19:30.185Z,6.03
2018-08-28T00:22:11.220Z,6.87
2018-08-28T00:24:51.816Z,5.87
2018-08-28T00:27:19.995Z,6.17
2018-08-28T00:29:48.176Z,6.08
2018-08-28T00:32:28.381Z,6.10
2018-08-28T00:34:56.630Z,6.70
2018-08-28T00:37:24.826Z,6.50
2018-08-28T00:39:53.061Z,6.20
2018-08-28T00:42:33.790Z,6.22
2018-08-28T00:45:14.547Z,5.70
2018-08-28T00:47:55.549Z,6.33
2018-08-28T00:50:24.351Z,7.05
2018-08-28T00:52:52.600Z,6.87
2018-08-28T00:55:20.881Z,6.30
2018-08-28T00:58:01.912Z,6.45
2018-08-28T01:00:42.669Z,6.78
2018-08-28T01:03:23.361Z,6.80
2018-08-28T01:06:04.286Z,6.70
2018-08-28T01:08:45.041Z,7.20
2018-08-28T01:11:25.777Z,7.20
2018-08-28T01:13:53.965Z,7.58
2018-08-28T01:16:34.401Z,7.30
2018-08-28T01:19:15.362Z,8.45
2018-08-28T01:21:43.576Z,7.58
2018-08-28T01:24:11.850Z,7.90
2018-08-28T01:26:52.528Z,7.00
2018-08-28T01:29:20.786Z,7.10
2018-08-28T01:32:01.214Z,8.20
2018-08-28T01:34:42.017Z,7.55
2018-08-28T01:37:22.872Z,7.30
2018-08-28T01:40:03.620Z,7.15
2018-08-28T01:42:44.417Z,7.28
2018-08-28T01:45:25.067Z,7.67
2018-08-28T01:48:05.624Z,7.70
2018-08-28T01:50:46.458Z,7.75
2018-08-28T01:53:27.338Z,7.80
2018-08-28T01:56:08.290Z,7.50
2018-08-28T01:58:36.570Z,7.20
2018-08-28T02:01:17.652Z,7.87
2018-08-28T02:03:58.169Z,9.18
2018-08-28T02:06:26.417Z,7.60
2018-08-28T02:09:06.883Z,7.08
2018-08-28T02:11:47.648Z,7.80
2018-08-28T02:14:16.617Z,7.87
2018-08-28T02:16:45.015Z,8.30
2018-08-28T02:19:13.249Z,8.30
2018-08-28T02:21:41.693Z,7.40
2018-08-28T02:24:21.938Z,7.62
2018-08-28T02:26:50.233Z,7.67
2018-08-28T02:29:18.478Z,8.15
2018-08-28T02:31:59.402Z,8.20
2018-08-28T02:34:40.426Z,8.08
2018-08-28T02:37:21.258Z,9.20
2018-08-28T02:40:02.049Z,8.18
2018-08-28T02:42:43.094Z,8.45
2018-08-28T02:45:23.755Z,7.80
2018-08-28T02:48:04.567Z,8.15
2018-08-28T02:50:45.056Z,8.25
2018-08-28T02:53:25.834Z,8.50
2018-08-28T02:56:06.683Z,7.90
2018-08-28T02:58:47.507Z,8.40
2018-08-28T03:01:28.308Z,7.72
2018-08-28T03:04:00.133Z,7.58
2018-08-28T03:06:28.473Z,7.72
2018-08-28T03:09:09.380Z,7.30
2018-08-28T03:11:37.689Z,8.30
2018-08-28T03:14:18.761Z,7.42
2018-08-28T03:16:47.172Z,8.00
2018-08-28T03:19:28.314Z,8.63
2018-08-28T03:21:57.127Z,7.92
2018-08-28T03:24:26.668Z,8.58
2018-08-28T03:26:55.271Z,7.97
2018-08-28T03:29:25.127Z,7.90
2018-08-28T03:32:05.456Z,7.30
2018-08-28T03:34:33.832Z,7.20
2018-08-28T03:37:14.998Z,7.85
2018-08-28T03:39:55.769Z,7.28
2018-08-28T03:42:24.565Z,7.40
2018-08-28T03:45:05.379Z,6.67
2018-08-28T03:47:34.784Z,7.28
2018-08-28T03:50:03.004Z,6.90
2018-08-28T03:52:43.245Z,7.70
2018-08-28T03:55:11.480Z,7.58
2018-08-28T03:57:40.512Z,7.70
2018-08-28T04:00:10.251Z,8.10
2018-08-28T04:02:38.497Z,6.90
2018-08-28T04:05:12.203Z,7.15
2018-08-28T04:07:53.260Z,6.95
2018-08-28T04:10:21.542Z,7.90
2018-08-28T04:12:50.028Z,6.67
2018-08-28T04:15:30.912Z,7.85
2018-08-28T04:17:59.307Z,7.55
2018-08-28T04:20:30.232Z,8.13
2018-08-28T04:22:58.468Z,7.35
2018-08-28T04:25:39.506Z,7.30
2018-08-28T04:28:09.380Z,7.90
2018-08-28T04:30:39.189Z,7.10
2018-08-28T04:33:10.661Z,7.08
2018-08-28T04:35:48.351Z,6.75
2018-08-28T04:38:16.595Z,7.25
2018-08-28T04:40:44.942Z,6.75
2018-08-28T04:43:14.635Z,6.57
2018-08-28T04:45:42.874Z,6.92
2018-08-28T04:48:23.088Z,6.83
2018-08-28T04:51:03.833Z,6.80
2018-08-28T04:53:33.583Z,6.37
2018-08-28T04:56:01.839Z,6.28
2018-08-28T04:58:42.264Z,6.40
2018-08-28T05:01:22.928Z,7.20
2018-08-28T05:04:03.989Z,7.40
2018-08-28T05:06:32.197Z,7.42
2018-08-28T05:09:02.336Z,7.00
2018-08-28T05:11:42.700Z,6.72
2018-08-28T05:14:23.658Z,7.13
2018-08-28T05:16:51.830Z,6.30
2018-08-28T05:19:32.129Z,7.10
2018-08-28T05:22:00.381Z,6.60
2018-08-28T05:24:40.904Z,5.67
2018-08-28T05:27:21.973Z,5.90
2018-08-28T05:30:02.412Z,6.35
2018-08-28T05:32:43.237Z,7.05
2018-08-28T05:35:23.860Z,6.72
2018-08-28T05:37:52.151Z,6.50
2018-08-28T05:40:32.466Z,7.00
2018-08-28T05:43:13.857Z,6.53
2018-08-28T05:45:42.111Z,7.33
2018-08-28T05:48:23.101Z,7.90
2018-08-28T05:51:03.878Z,6.70
2018-08-28T05:53:44.830Z,6.40
2018-08-28T05:56:25.430Z,8.20
2018-08-28T05:58:53.812Z,6.35
2018-08-28T06:01:34.373Z,6.40
2018-08-28T06:04:15.258Z,6.43
2018-08-28T06:06:56.379Z,7.05
2018-08-28T06:09:37.563Z,6.17
2018-08-28T06:12:05.893Z,6.25
2018-08-28T06:14:34.254Z,6.17
2018-08-28T06:17:15.435Z,6.78
2018-08-28T06:19:43.636Z,6.60
2018-08-28T06:22:24.319Z,6.92
2018-08-28T06:25:04.985Z,7.10
2018-08-28T06:27:45.807Z,7.40
2018-08-28T06:30:26.610Z,6.50
2018-08-28T06:32:54.845Z,6.42
2018-08-28T06:35:35.725Z,5.90
2018-08-28T06:38:15.995Z,6.05
2018-08-28T06:40:57.066Z,6.10
2018-08-28T06:43:26.584Z,6.50
2018-08-28T06:46:07.654Z,6.10
2018-08-28T06:48:48.917Z,5.77
2018-08-28T06:51:17.212Z,5.55
2018-08-28T06:53:57.974Z,6.53
2018-08-28T06:56:26.287Z,5.60
2018-08-28T06:59:06.861Z,5.63
2018-08-28T07:01:47.613Z,4.83
2018-08-28T07:04:15.833Z,4.90
2018-08-28T07:06:56.306Z,4.60
2018-08-28T07:09:25.516Z,4.75
2018-08-28T07:11:53.717Z,5.25
2018-08-28T07:14:34.761Z,4.85
2018-08-28T07:17:02.943Z,5.33
2018-08-28T07:19:31.192Z,4.72
2018-08-28T07:22:11.451Z,5.50
2018-08-28T07:24:39.713Z,6.25
2018-08-28T07:27:20.091Z,5.45
2018-08-28T07:29:48.264Z,4.70
2018-08-28T07:32:16.442Z,5.10
2018-08-28T07:34:56.620Z,5.70
2018-08-28T07:37:24.962Z,5.17
2018-08-28T07:39:53.186Z,4.70
2018-08-28T07:42:33.877Z,5.15
2018-08-28T07:45:14.553Z,4.87
2018-08-28T07:47:42.784Z,6.50
2018-08-28T07:50:10.979Z,5.05
2018-08-28T07:52:39.153Z,5.90
2018-08-28T07:55:19.863Z,5.90
2018-08-28T07:57:48.037Z,5.22
2018-08-28T08:00:16.238Z,5.78
2018-08-28T08:02:57.360Z,5.75
2018-08-28T08:05:31.104Z,5.40
2018-08-28T08:08:11.872Z,4.90
2018-08-28T08:10:53.129Z,5.30
2018-08-28T08:13:35.569Z,5.10
2018-08-28T08:16:16.425Z,4.90
2018-08-28T08:18:57.197Z,5.20
2018-08-28T08:21:25.436Z,4.92
2018-08-28T08:23:53.662Z,5.10
2018-08-28T08:26:21.861Z,4.97
2018-08-28T08:29:02.424Z,4.92
2018-08-28T08:31:43.336Z,5.15
2018-08-28T08:34:24.066Z,5.70
2018-08-28T08:36:52.368Z,4.80
2018-08-28T08:39:33.468Z,5.00
2018-08-28T08:42:14.249Z,5.60
2018-08-28T08:44:55.069Z,4.87
2018-08-28T08:47:24.968Z,4.40
2018-08-28T08:49:53.180Z,3.90
2018-08-28T08:52:22.030Z,5.00
2018-08-28T08:55:02.440Z,5.10
2018-08-28T08:57:43.075Z,5.20
2018-08-28T09:00:11.281Z,4.50
2018-08-28T09:02:51.600Z,4.20
2018-08-28T09:05:32.254Z,4.87
2018-08-28T09:08:01.390Z,6.83
2018-08-28T09:10:41.545Z,7.92
2018-08-28T09:13:09.817Z,11.53
2018-08-28T09:15:38.255Z,5.12
2018-08-28T09:18:19.129Z,3.80
2018-08-28T09:20:59.976Z,4.90
2018-08-28T09:23:28.687Z,4.60
2018-08-28T09:25:57.065Z,4.20
2018-08-28T09:28:37.553Z,4.40
2018-08-28T09:31:05.882Z,4.20
2018-08-28T09:33:37.713Z,4.72
2018-08-28T09:36:06.188Z,4.00
2018-08-28T09:38:47.036Z,4.85
2018-08-28T09:41:27.874Z,5.65
2018-08-28T09:44:08.706Z,5.12
2018-08-28T09:46:49.197Z,5.80
2018-08-28T09:49:17.388Z,4.67
2018-08-28T09:51:57.753Z,4.40
2018-08-28T09:54:38.595Z,3.83
2018-08-28T09:57:19.366Z,4.70
2018-08-28T10:00:00.172Z,4.60
2018-08-28T10:02:40.841Z,3.98
2018-08-28T10:05:21.533Z,4.55
2018-08-28T10:08:02.627Z,4.65
2018-08-28T10:10:43.133Z,4.00
2018-08-28T10:13:11.367Z,4.20
2018-08-28T10:15:51.972Z,4.75
2018-08-28T10:18:20.200Z,4.83
2018-08-28T10:21:00.458Z,4.80
2018-08-28T10:23:41.123Z,4.50
2018-08-28T10:26:21.732Z,4.40
2018-08-28T10:29:02.638Z,4.37
2018-08-28T10:31:43.192Z,4.53
2018-08-28T10:34:23.932Z,5.22
2018-08-28T10:37:04.762Z,4.83
2018-08-28T10:39:45.500Z,4.15
2018-08-28T10:42:13.691Z,4.22
2018-08-28T10:44:41.886Z,5.00
2018-08-28T10:47:22.662Z,3.80
2018-08-28T10:50:03.470Z,4.00
2018-08-28T10:52:31.672Z,4.03
2018-08-28T10:55:11.913Z,5.42
2018-08-28T10:57:52.608Z,5.05
2018-08-28T11:00:33.331Z,4.60
2018-08-28T11:03:14.105Z,5.57
2018-08-28T11:05:54.956Z,5.20
2018-08-28T11:08:35.706Z,5.00
2018-08-28T11:11:16.428Z,6.00
2018-08-28T11:13:57.328Z,5.25
2018-08-28T11:16:37.990Z,4.65
2018-08-28T11:19:06.181Z,4.90
2018-08-28T11:21:34.358Z,5.30
2018-08-28T11:24:15.386Z,6.85
2018-08-28T11:26:56.099Z,5.20
2018-08-28T11:29:37.023Z,4.78
2018-08-28T11:32:17.703Z,5.15
2018-08-28T11:34:58.480Z,4.70
2018-08-28T11:37:39.194Z,5.10
2018-08-28T11:40:19.903Z,5.47
2018-08-28T11:43:00.504Z,5.25
2018-08-28T11:45:41.241Z,4.33
2018-08-28T11:48:21.785Z,4.60
2018-08-28T11:50:50.012Z,5.20
2018-08-28T11:53:18.186Z,4.30
2018-08-28T11:55:58.878Z,5.37
2018-08-28T11:58:39.515Z,4.95
2018-08-28T12:01:20.087Z,4.90
2018-08-28T12:04:00.909Z,5.37
2018-08-28T12:06:41.564Z,4.90
2018-08-28T12:09:22.261Z,4.62
2018-08-28T12:12:03.191Z,5.05
2018-08-28T12:14:31.443Z,4.90
2018-08-28T12:17:11.731Z,4.37
2018-08-28T12:19:52.524Z,4.37
2018-08-28T12:22:33.206Z,4.03
2018-08-28T12:25:01.451Z,5.12
2018-08-28T12:27:29.713Z,5.00
2018-08-28T12:30:11.587Z,5.33
2018-08-28T12:32:52.231Z,5.20
2018-08-28T12:35:32.801Z,4.50
2018-08-28T12:38:13.445Z,4.95
2018-08-28T12:40:41.758Z,5.28
2018-08-28T12:43:22.051Z,4.70
2018-08-28T12:45:54.328Z,4.40
2018-08-28T12:48:34.795Z,4.70
2018-08-28T12:51:15.562Z,4.58
2018-08-28T12:59:42.535Z,4.60
2018-08-28T13:05:23.972Z,4.27
2018-08-28T13:08:04.530Z,4.53
2018-08-28T13:16:19.521Z,5.15
2018-08-28T13:18:47.740Z,4.87
2018-08-28T13:21:28.026Z,4.70
2018-08-28T13:23:57.218Z,5.00
2018-08-28T13:26:25.486Z,4.93
2018-08-28T13:28:56.857Z,4.87
2018-08-28T13:31:25.095Z,4.80
2018-08-28T13:34:05.776Z,5.45
2018-08-28T13:36:34.101Z,4.27
2018-08-28T13:39:02.728Z,4.33
2018-08-28T13:41:30.946Z,4.70
2018-08-28T13:43:59.159Z,5.17
2018-08-28T13:46:39.495Z,4.42
2018-08-28T13:49:20.154Z,4.78
2018-08-28T13:52:00.892Z,4.30
2018-08-28T13:54:41.555Z,4.40
2018-08-28T13:57:22.354Z,4.92
2018-08-28T13:59:50.553Z,4.70
2018-08-28T14:02:30.818Z,4.65
2018-08-28T14:05:11.462Z,4.37
2018-08-28T14:07:52.219Z,5.30
2018-08-28T14:10:33.908Z,4.70
2018-08-28T14:13:02.258Z,4.28
2018-08-28T14:15:43.131Z,4.80
2018-08-28T14:18:23.582Z,4.90
2018-08-28T14:21:04.245Z,4.30
2018-08-28T14:23:45.034Z,4.60
2018-08-28T14:26:17.638Z,5.25
2018-08-28T14:28:45.918Z,4.45
2018-08-28T14:31:19.081Z,5.37
2018-08-28T14:33:59.573Z,5.80
2018-08-28T14:36:40.070Z,4.97
2018-08-28T14:39:11.393Z,4.58
2018-08-28T14:41:51.668Z,4.95
2018-08-28T14:44:32.585Z,5.33
2018-08-28T14:47:06.326Z,5.20
2018-08-28T14:49:47.047Z,4.50
2018-08-28T14:52:15.750Z,4.85
2018-08-28T14:54:43.995Z,4.70
2018-08-28T14:57:19.407Z,4.97
2018-08-28T14:59:48.962Z,5.78
2018-08-28T15:02:17.212Z,5.33
2018-08-28T15:04:57.840Z,5.20
2018-08-28T15:07:26.116Z,5.17
2018-08-28T15:09:54.367Z,6.10
2018-08-28T15:12:29.030Z,5.60
2018-08-28T15:15:09.819Z,5.70
2018-08-28T15:17:50.519Z,5.80
2018-08-28T15:20:31.292Z,5.55
2018-08-28T15:23:12.144Z,5.15
2018-08-28T15:25:52.870Z,6.30
2018-08-28T15:28:33.628Z,5.00
2018-08-28T15:31:14.414Z,5.30
2018-08-28T15:33:54.997Z,4.85
2018-08-28T15:36:23.225Z,5.17
2018-08-28T15:38:51.580Z,5.00
2018-08-28T15:41:32.434Z,6.00
2018-08-28T15:44:13.163Z,5.72
2018-08-28T15:46:54.085Z,5.12
2018-08-28T15:49:34.831Z,4.75
2018-08-28T15:52:15.517Z,5.17
2018-08-28T15:54:45.250Z,5.00
2018-08-28T15:57:13.511Z,6.70
2018-08-28T15:59:43.473Z,5.80
2018-08-28T16:02:23.857Z,5.75
2018-08-28T16:04:58.589Z,4.90
2018-08-28T16:07:26.836Z,4.92
2018-08-28T16:09:55.156Z,5.50
2018-08-28T16:12:35.737Z,4.90
2018-08-28T16:15:03.965Z,5.95
